sensor_id;sensor_type;location;lat;lon;timestamp;P1;durP1;ratioP1;P2;durP2;ratioP2
39066;SDS011;24821;51.988;6.020;2022-08-19T00:00:03;19.23;;;18.25;;
39066;SDS011;24821;51.988;6.020;2022-08-19T00:02:32;18.40;;;17.50;;
39066;SDS011;24821;51.988;6.020;2022-08-19T00:04:58;18.40;;;17.50;;
39066;SDS011;24821;51.988;6.020;2022-08-19T00:07:23;17.20;;;16.35;;
39066;SDS011;24821;51.988;6.020;2022-08-19T00:09:49;19.30;;;18.30;;
39066;SDS011;24821;51.988;6.020;2022-08-19T00:12:14;19.30;;;18.30;;
39066;SDS011;24821;51.988;6.020;2022-08-19T00:14:40;18.35;;;17.45;;
39066;SDS011;24821;51.988;6.020;2022-08-19T00:17:06;17.88;;;16.98;;
39066;SDS011;24821;51.988;6.020;2022-08-19T00:19:33;19.27;;;18.27;;
39066;SDS011;24821;51.988;6.020;2022-08-19T00:22:00;19.05;;;18.15;;
39066;SDS011;24821;51.988;6.020;2022-08-19T00:24:27;18.58;;;17.58;;
39066;SDS011;24821;51.988;6.020;2022-08-19T00:26:53;18.27;;;17.38;;
39066;SDS011;24821;51.988;6.020;2022-08-19T00:29:20;18.65;;;17.75;;
39066;SDS011;24821;51.988;6.020;2022-08-19T00:31:46;18.27;;;17.38;;
39066;SDS011;24821;51.988;6.020;2022-08-19T00:34:13;19.52;;;18.42;;
39066;SDS011;24821;51.988;6.020;2022-08-19T00:36:39;18.38;;;17.48;;
39066;SDS011;24821;51.988;6.020;2022-08-19T00:39:06;20.20;;;19.20;;
39066;SDS011;24821;51.988;6.020;2022-08-19T00:41:32;19.40;;;18.45;;
39066;SDS011;24821;51.988;6.020;2022-08-19T00:46:27;21.80;;;20.70;;
39066;SDS011;24821;51.988;6.020;2022-08-19T00:48:53;21.20;;;20.10;;
39066;SDS011;24821;51.988;6.020;2022-08-19T00:51:20;21.17;;;19.98;;
39066;SDS011;24821;51.988;6.020;2022-08-19T00:53:47;22.80;;;21.60;;
39066;SDS011;24821;51.988;6.020;2022-08-19T00:56:12;24.85;;;23.52;;
39066;SDS011;24821;51.988;6.020;2022-08-19T00:58:38;24.27;;;22.98;;
39066;SDS011;24821;51.988;6.020;2022-08-19T01:01:04;26.58;;;25.17;;
39066;SDS011;24821;51.988;6.020;2022-08-19T01:03:30;25.75;;;24.25;;
39066;SDS011;24821;51.988;6.020;2022-08-19T01:05:56;25.80;;;24.30;;
39066;SDS011;24821;51.988;6.020;2022-08-19T01:08:22;24.52;;;23.23;;
39066;SDS011;24821;51.988;6.020;2022-08-19T01:10:52;23.45;;;21.95;;
39066;SDS011;24821;51.988;6.020;2022-08-19T01:13:22;25.15;;;23.77;;
39066;SDS011;24821;51.988;6.020;2022-08-19T01:15:55;26.15;;;24.67;;
39066;SDS011;24821;51.988;6.020;2022-08-19T01:18:24;26.50;;;25.10;;
39066;SDS011;24821;51.988;6.020;2022-08-19T01:20:52;26.67;;;25.27;;
39066;SDS011;24821;51.988;6.020;2022-08-19T01:23:20;27.88;;;26.38;;
39066;SDS011;24821;51.988;6.020;2022-08-19T01:25:50;28.20;;;26.60;;
39066;SDS011;24821;51.988;6.020;2022-08-19T01:28:18;27.42;;;25.83;;
39066;SDS011;24821;51.988;6.020;2022-08-19T01:30:47;28.92;;;27.35;;
39066;SDS011;24821;51.988;6.020;2022-08-19T01:33:13;26.30;;;24.85;;
39066;SDS011;24821;51.988;6.020;2022-08-19T01:35:39;26.67;;;25.15;;
39066;SDS011;24821;51.988;6.020;2022-08-19T01:38:09;26.25;;;24.85;;
39066;SDS011;24821;51.988;6.020;2022-08-19T01:40:43;28.33;;;26.63;;
39066;SDS011;24821;51.988;6.020;2022-08-19T01:43:09;27.90;;;26.20;;
39066;SDS011;24821;51.988;6.020;2022-08-19T01:45:35;27.83;;;26.17;;
39066;SDS011;24821;51.988;6.020;2022-08-19T01:48:02;27.90;;;26.20;;
39066;SDS011;24821;51.988;6.020;2022-08-19T01:50:32;30.17;;;28.58;;
39066;SDS011;24821;51.988;6.020;2022-08-19T01:52:59;27.58;;;26.05;;
39066;SDS011;24821;51.988;6.020;2022-08-19T01:55:25;30.15;;;28.55;;
39066;SDS011;24821;51.988;6.020;2022-08-19T01:57:52;30.92;;;29.23;;
39066;SDS011;24821;51.988;6.020;2022-08-19T02:00:21;34.38;;;32.38;;
39066;SDS011;24821;51.988;6.020;2022-08-19T02:02:48;31.75;;;30.00;;
39066;SDS011;24821;51.988;6.020;2022-08-19T02:05:14;33.35;;;31.40;;
39066;SDS011;24821;51.988;6.020;2022-08-19T02:07:41;32.55;;;30.88;;
39066;SDS011;24821;51.988;6.020;2022-08-19T02:10:08;33.83;;;31.92;;
39066;SDS011;24821;51.988;6.020;2022-08-19T02:12:35;32.58;;;30.67;;
39066;SDS011;24821;51.988;6.020;2022-08-19T02:15:01;34.55;;;32.65;;
39066;SDS011;24821;51.988;6.020;2022-08-19T02:17:28;32.38;;;30.65;;
39066;SDS011;24821;51.988;6.020;2022-08-19T02:19:54;31.25;;;29.58;;
39066;SDS011;24821;51.988;6.020;2022-08-19T02:22:21;31.25;;;29.25;;
39066;SDS011;24821;51.988;6.020;2022-08-19T02:24:47;33.35;;;31.35;;
39066;SDS011;24821;51.988;6.020;2022-08-19T02:27:13;34.40;;;32.47;;
39066;SDS011;24821;51.988;6.020;2022-08-19T02:29:39;30.55;;;28.75;;
39066;SDS011;24821;51.988;6.020;2022-08-19T02:32:05;30.73;;;29.05;;
39066;SDS011;24821;51.988;6.020;2022-08-19T02:34:31;31.60;;;29.73;;
39066;SDS011;24821;51.988;6.020;2022-08-19T02:36:57;29.55;;;27.92;;
39066;SDS011;24821;51.988;6.020;2022-08-19T02:39:23;29.08;;;27.27;;
39066;SDS011;24821;51.988;6.020;2022-08-19T02:41:48;27.92;;;26.40;;
39066;SDS011;24821;51.988;6.020;2022-08-19T02:44:15;27.58;;;26.02;;
39066;SDS011;24821;51.988;6.020;2022-08-19T02:46:41;26.60;;;25.17;;
39066;SDS011;24821;51.988;6.020;2022-08-19T02:49:07;26.98;;;25.38;;
39066;SDS011;24821;51.988;6.020;2022-08-19T02:51:40;26.10;;;24.63;;
39066;SDS011;24821;51.988;6.020;2022-08-19T02:54:07;27.10;;;25.55;;
39066;SDS011;24821;51.988;6.020;2022-08-19T02:56:35;26.27;;;24.70;;
39066;SDS011;24821;51.988;6.020;2022-08-19T02:59:02;26.02;;;24.70;;
39066;SDS011;24821;51.988;6.020;2022-08-19T03:04:03;22.38;;;21.05;;
39066;SDS011;24821;51.988;6.020;2022-08-19T03:06:30;26.33;;;24.83;;
39066;SDS011;24821;51.988;6.020;2022-08-19T03:08:56;26.52;;;25.02;;
39066;SDS011;24821;51.988;6.020;2022-08-19T03:11:23;26.67;;;25.08;;
39066;SDS011;24821;51.988;6.020;2022-08-19T03:13:51;26.05;;;24.52;;
39066;SDS011;24821;51.988;6.020;2022-08-19T03:16:18;25.67;;;23.95;;
39066;SDS011;24821;51.988;6.020;2022-08-19T03:18:45;27.45;;;25.85;;
39066;SDS011;24821;51.988;6.020;2022-08-19T03:21:14;26.17;;;24.65;;
39066;SDS011;24821;51.988;6.020;2022-08-19T03:23:50;25.65;;;24.05;;
39066;SDS011;24821;51.988;6.020;2022-08-19T03:26:19;26.00;;;24.45;;
39066;SDS011;24821;51.988;6.020;2022-08-19T03:28:45;25.90;;;24.17;;
39066;SDS011;24821;51.988;6.020;2022-08-19T03:31:15;24.90;;;23.40;;
39066;SDS011;24821;51.988;6.020;2022-08-19T03:33:47;25.77;;;24.30;;
39066;SDS011;24821;51.988;6.020;2022-08-19T03:36:15;24.63;;;23.33;;
39066;SDS011;24821;51.988;6.020;2022-08-19T03:38:44;27.77;;;26.08;;
39066;SDS011;24821;51.988;6.020;2022-08-19T03:41:13;27.20;;;25.60;;
39066;SDS011;24821;51.988;6.020;2022-08-19T03:43:41;26.73;;;25.05;;
39066;SDS011;24821;51.988;6.020;2022-08-19T03:46:09;25.80;;;24.30;;
39066;SDS011;24821;51.988;6.020;2022-08-19T03:48:37;27.25;;;25.52;;
39066;SDS011;24821;51.988;6.020;2022-08-19T03:51:04;27.92;;;26.33;;
39066;SDS011;24821;51.988;6.020;2022-08-19T03:53:31;29.90;;;27.92;;
39066;SDS011;24821;51.988;6.020;2022-08-19T03:55:59;29.33;;;27.73;;
39066;SDS011;24821;51.988;6.020;2022-08-19T03:58:26;27.95;;;26.35;;
39066;SDS011;24821;51.988;6.020;2022-08-19T04:00:53;27.13;;;25.60;;
39066;SDS011;24821;51.988;6.020;2022-08-19T04:03:23;26.45;;;24.98;;
39066;SDS011;24821;51.988;6.020;2022-08-19T04:05:51;26.15;;;24.67;;
39066;SDS011;24821;51.988;6.020;2022-08-19T04:08:16;29.35;;;27.55;;
39066;SDS011;24821;51.988;6.020;2022-08-19T04:10:45;28.25;;;26.45;;
39066;SDS011;24821;51.988;6.020;2022-08-19T04:13:11;27.27;;;25.75;;
39066;SDS011;24821;51.988;6.020;2022-08-19T04:15:41;28.08;;;26.58;;
39066;SDS011;24821;51.988;6.020;2022-08-19T04:18:08;28.20;;;26.52;;
39066;SDS011;24821;51.988;6.020;2022-08-19T04:20:53;27.65;;;26.08;;
39066;SDS011;24821;51.988;6.020;2022-08-19T04:23:18;27.13;;;25.33;;
39066;SDS011;24821;51.988;6.020;2022-08-19T04:25:44;27.33;;;25.77;;
39066;SDS011;24821;51.988;6.020;2022-08-19T04:28:11;24.95;;;23.48;;
39066;SDS011;24821;51.988;6.020;2022-08-19T04:30:41;27.05;;;25.55;;
39066;SDS011;24821;51.988;6.020;2022-08-19T04:33:09;27.73;;;26.08;;
39066;SDS011;24821;51.988;6.020;2022-08-19T04:35:40;29.23;;;27.58;;
39066;SDS011;24821;51.988;6.020;2022-08-19T04:38:08;27.90;;;26.23;;
39066;SDS011;24821;51.988;6.020;2022-08-19T04:40:39;31.20;;;29.27;;
39066;SDS011;24821;51.988;6.020;2022-08-19T04:43:28;29.98;;;28.33;;
39066;SDS011;24821;51.988;6.020;2022-08-19T04:45:54;27.85;;;26.20;;
39066;SDS011;24821;51.988;6.020;2022-08-19T04:48:20;29.88;;;28.27;;
39066;SDS011;24821;51.988;6.020;2022-08-19T04:50:51;31.70;;;29.70;;
39066;SDS011;24821;51.988;6.020;2022-08-19T04:53:22;31.13;;;29.27;;
39066;SDS011;24821;51.988;6.020;2022-08-19T04:55:55;29.47;;;27.83;;
39066;SDS011;24821;51.988;6.020;2022-08-19T04:58:23;30.05;;;28.45;;
39066;SDS011;24821;51.988;6.020;2022-08-19T05:00:50;30.90;;;29.15;;
39066;SDS011;24821;51.988;6.020;2022-08-19T05:03:16;30.33;;;28.63;;
39066;SDS011;24821;51.988;6.020;2022-08-19T05:05:42;31.77;;;30.05;;
39066;SDS011;24821;51.988;6.020;2022-08-19T05:08:09;32.95;;;31.13;;
39066;SDS011;24821;51.988;6.020;2022-08-19T05:10:35;32.20;;;30.45;;
39066;SDS011;24821;51.988;6.020;2022-08-19T05:13:03;29.83;;;28.08;;
39066;SDS011;24821;51.988;6.020;2022-08-19T05:15:28;30.92;;;29.27;;
39066;SDS011;24821;51.988;6.020;2022-08-19T05:17:54;32.60;;;30.80;;
39066;SDS011;24821;51.988;6.020;2022-08-19T05:20:38;31.45;;;29.67;;
39066;SDS011;24821;51.988;6.020;2022-08-19T05:23:23;31.60;;;29.95;;
39066;SDS011;24821;51.988;6.020;2022-08-19T05:25:49;34.13;;;32.25;;
39066;SDS011;24821;51.988;6.020;2022-08-19T05:28:16;33.45;;;31.75;;
39066;SDS011;24821;51.988;6.020;2022-08-19T05:30:43;33.90;;;31.80;;
39066;SDS011;24821;51.988;6.020;2022-08-19T05:33:10;32.42;;;30.50;;
39066;SDS011;24821;51.988;6.020;2022-08-19T05:35:37;33.05;;;30.80;;
39066;SDS011;24821;51.988;6.020;2022-08-19T05:38:04;33.58;;;31.38;;
39066;SDS011;24821;51.988;6.020;2022-08-19T05:40:33;33.08;;;31.17;;
39066;SDS011;24821;51.988;6.020;2022-08-19T05:43:01;32.72;;;30.83;;
39066;SDS011;24821;51.988;6.020;2022-08-19T05:45:27;32.65;;;30.85;;
39066;SDS011;24821;51.988;6.020;2022-08-19T05:47:52;34.65;;;32.55;;
39066;SDS011;24821;51.988;6.020;2022-08-19T05:50:19;32.90;;;31.00;;
39066;SDS011;24821;51.988;6.020;2022-08-19T05:52:44;32.78;;;30.98;;
39066;SDS011;24821;51.988;6.020;2022-08-19T05:55:10;32.65;;;30.85;;
39066;SDS011;24821;51.988;6.020;2022-08-19T05:57:36;32.78;;;30.65;;
39066;SDS011;24821;51.988;6.020;2022-08-19T06:00:03;35.03;;;33.03;;
39066;SDS011;24821;51.988;6.020;2022-08-19T06:02:33;31.25;;;29.35;;
39066;SDS011;24821;51.988;6.020;2022-08-19T06:05:00;32.58;;;30.58;;
39066;SDS011;24821;51.988;6.020;2022-08-19T06:07:27;31.15;;;29.25;;
39066;SDS011;24821;51.988;6.020;2022-08-19T06:09:53;33.70;;;31.80;;
39066;SDS011;24821;51.988;6.020;2022-08-19T06:12:19;33.90;;;31.90;;
39066;SDS011;24821;51.988;6.020;2022-08-19T06:14:55;34.75;;;32.03;;
39066;SDS011;24821;51.988;6.020;2022-08-19T06:17:21;34.03;;;31.48;;
39066;SDS011;24821;51.988;6.020;2022-08-19T06:19:49;32.45;;;30.48;;
39066;SDS011;24821;51.988;6.020;2022-08-19T06:22:15;36.10;;;33.92;;
39066;SDS011;24821;51.988;6.020;2022-08-19T06:24:41;37.08;;;34.75;;
39066;SDS011;24821;51.988;6.020;2022-08-19T06:27:07;40.20;;;37.90;;
39066;SDS011;24821;51.988;6.020;2022-08-19T06:29:32;39.95;;;37.55;;
39066;SDS011;24821;51.988;6.020;2022-08-19T06:31:59;52.28;;;49.17;;
39066;SDS011;24821;51.988;6.020;2022-08-19T06:34:28;42.00;;;39.20;;
39066;SDS011;24821;51.988;6.020;2022-08-19T06:36:56;43.85;;;40.85;;
39066;SDS011;24821;51.988;6.020;2022-08-19T06:39:26;47.85;;;44.75;;
39066;SDS011;24821;51.988;6.020;2022-08-19T06:41:56;54.78;;;51.63;;
39066;SDS011;24821;51.988;6.020;2022-08-19T06:44:25;51.65;;;48.45;;
39066;SDS011;24821;51.988;6.020;2022-08-19T06:46:52;53.42;;;50.03;;
39066;SDS011;24821;51.988;6.020;2022-08-19T06:49:18;51.40;;;48.25;;
39066;SDS011;24821;51.988;6.020;2022-08-19T06:51:45;53.83;;;50.42;;
39066;SDS011;24821;51.988;6.020;2022-08-19T06:54:13;54.92;;;51.30;;
39066;SDS011;24821;51.988;6.020;2022-08-19T06:56:40;59.58;;;55.63;;
39066;SDS011;24821;51.988;6.020;2022-08-19T06:59:07;60.70;;;56.45;;
39066;SDS011;24821;51.988;6.020;2022-08-19T07:01:36;46.28;;;43.13;;
39066;SDS011;24821;51.988;6.020;2022-08-19T07:04:03;53.90;;;50.35;;
39066;SDS011;24821;51.988;6.020;2022-08-19T07:06:29;65.90;;;61.47;;
39066;SDS011;24821;51.988;6.020;2022-08-19T07:08:56;50.78;;;46.95;;
39066;SDS011;24821;51.988;6.020;2022-08-19T07:11:23;48.80;;;44.33;;
39066;SDS011;24821;51.988;6.020;2022-08-19T07:13:49;51.92;;;47.72;;
39066;SDS011;24821;51.988;6.020;2022-08-19T07:16:16;45.50;;;41.63;;
39066;SDS011;24821;51.988;6.020;2022-08-19T07:18:45;47.28;;;43.15;;
39066;SDS011;24821;51.988;6.020;2022-08-19T07:21:18;50.17;;;46.25;;
39066;SDS011;24821;51.988;6.020;2022-08-19T07:23:46;55.20;;;50.72;;
39066;SDS011;24821;51.988;6.020;2022-08-19T07:28:44;55.75;;;51.35;;
39066;SDS011;24821;51.988;6.020;2022-08-19T07:31:11;56.00;;;51.63;;
39066;SDS011;24821;51.988;6.020;2022-08-19T07:33:39;52.25;;;47.70;;
39066;SDS011;24821;51.988;6.020;2022-08-19T07:36:06;56.80;;;51.72;;
39066;SDS011;24821;51.988;6.020;2022-08-19T07:38:33;54.40;;;49.45;;
39066;SDS011;24821;51.988;6.020;2022-08-19T07:40:59;49.95;;;45.45;;
39066;SDS011;24821;51.988;6.020;2022-08-19T07:43:25;46.63;;;42.55;;
39066;SDS011;24821;51.988;6.020;2022-08-19T07:45:52;51.10;;;46.58;;
39066;SDS011;24821;51.988;6.020;2022-08-19T07:48:22;49.75;;;45.08;;
39066;SDS011;24821;51.988;6.020;2022-08-19T07:50:50;54.00;;;49.50;;
39066;SDS011;24821;51.988;6.020;2022-08-19T07:53:20;55.80;;;51.10;;
39066;SDS011;24821;51.988;6.020;2022-08-19T07:55:47;51.95;;;47.53;;
39066;SDS011;24821;51.988;6.020;2022-08-19T07:58:14;51.50;;;46.85;;
39066;SDS011;24821;51.988;6.020;2022-08-19T08:00:42;61.33;;;56.33;;
39066;SDS011;24821;51.988;6.020;2022-08-19T08:03:08;55.88;;;50.90;;
39066;SDS011;24821;51.988;6.020;2022-08-19T08:05:34;53.38;;;48.47;;
39066;SDS011;24821;51.988;6.020;2022-08-19T08:08:20;59.00;;;54.10;;
39066;SDS011;24821;51.988;6.020;2022-08-19T08:11:04;50.40;;;45.65;;
39066;SDS011;24821;51.988;6.020;2022-08-19T08:13:30;48.65;;;44.05;;
39066;SDS011;24821;51.988;6.020;2022-08-19T08:15:58;46.70;;;42.40;;
39066;SDS011;24821;51.988;6.020;2022-08-19T08:18:24;49.88;;;45.35;;
39066;SDS011;24821;51.988;6.020;2022-08-19T08:20:49;54.97;;;50.20;;
39066;SDS011;24821;51.988;6.020;2022-08-19T08:23:15;57.90;;;52.70;;
39066;SDS011;24821;51.988;6.020;2022-08-19T08:25:47;42.30;;;38.33;;
39066;SDS011;24821;51.988;6.020;2022-08-19T08:28:13;48.67;;;43.95;;
39066;SDS011;24821;51.988;6.020;2022-08-19T08:30:39;40.35;;;36.42;;
39066;SDS011;24821;51.988;6.020;2022-08-19T08:33:07;44.60;;;40.75;;
39066;SDS011;24821;51.988;6.020;2022-08-19T08:35:33;55.58;;;50.72;;
39066;SDS011;24821;51.988;6.020;2022-08-19T08:37:59;48.00;;;43.90;;
39066;SDS011;24821;51.988;6.020;2022-08-19T08:43:11;59.00;;;54.00;;
39066;SDS011;24821;51.988;6.020;2022-08-19T08:45:44;45.22;;;41.83;;
39066;SDS011;24821;51.988;6.020;2022-08-19T08:48:20;45.93;;;42.43;;
39066;SDS011;24821;51.988;6.020;2022-08-19T08:50:57;43.97;;;40.67;;
39066;SDS011;24821;51.988;6.020;2022-08-19T08:53:24;46.45;;;42.85;;
39066;SDS011;24821;51.988;6.020;2022-08-19T08:55:50;44.60;;;41.15;;
39066;SDS011;24821;51.988;6.020;2022-08-19T08:58:18;40.15;;;37.10;;
39066;SDS011;24821;51.988;6.020;2022-08-19T09:01:08;32.78;;;30.48;;
39066;SDS011;24821;51.988;6.020;2022-08-19T09:03:36;34.70;;;32.03;;
39066;SDS011;24821;51.988;6.020;2022-08-19T09:06:07;31.50;;;29.20;;
39066;SDS011;24821;51.988;6.020;2022-08-19T09:11:06;27.73;;;25.63;;
39066;SDS011;24821;51.988;6.020;2022-08-19T09:16:19;21.13;;;19.55;;
39066;SDS011;24821;51.988;6.020;2022-08-19T09:18:52;21.17;;;19.35;;
39066;SDS011;24821;51.988;6.020;2022-08-19T09:21:22;19.10;;;17.35;;
39066;SDS011;24821;51.988;6.020;2022-08-19T09:23:51;16.00;;;14.70;;
39066;SDS011;24821;51.988;6.020;2022-08-19T09:26:18;16.80;;;15.30;;
39066;SDS011;24821;51.988;6.020;2022-08-19T09:28:46;17.98;;;16.52;;
39066;SDS011;24821;51.988;6.020;2022-08-19T09:31:15;18.38;;;16.88;;
39066;SDS011;24821;51.988;6.020;2022-08-19T09:33:42;19.00;;;17.50;;
39066;SDS011;24821;51.988;6.020;2022-08-19T09:36:09;15.82;;;14.60;;
39066;SDS011;24821;51.988;6.020;2022-08-19T09:38:37;15.75;;;14.57;;
39066;SDS011;24821;51.988;6.020;2022-08-19T09:41:07;16.05;;;14.85;;
39066;SDS011;24821;51.988;6.020;2022-08-19T09:43:37;17.38;;;15.93;;
39066;SDS011;24821;51.988;6.020;2022-08-19T09:46:03;19.38;;;17.67;;
39066;SDS011;24821;51.988;6.020;2022-08-19T09:48:31;19.25;;;17.75;;
39066;SDS011;24821;51.988;6.020;2022-08-19T09:51:08;20.38;;;18.88;;
39066;SDS011;24821;51.988;6.020;2022-08-19T09:53:35;19.08;;;17.48;;
39066;SDS011;24821;51.988;6.020;2022-08-19T09:56:02;20.83;;;19.05;;
39066;SDS011;24821;51.988;6.020;2022-08-19T09:58:29;18.92;;;17.42;;
39066;SDS011;24821;51.988;6.020;2022-08-19T10:00:55;20.40;;;18.70;;
39066;SDS011;24821;51.988;6.020;2022-08-19T10:03:21;21.88;;;19.90;;
39066;SDS011;24821;51.988;6.020;2022-08-19T10:05:47;26.45;;;24.00;;
39066;SDS011;24821;51.988;6.020;2022-08-19T10:08:20;26.42;;;24.20;;
39066;SDS011;24821;51.988;6.020;2022-08-19T10:11:06;27.23;;;24.95;;
39066;SDS011;24821;51.988;6.020;2022-08-19T10:13:33;22.85;;;20.88;;
39066;SDS011;24821;51.988;6.020;2022-08-19T10:16:07;24.45;;;22.38;;
39066;SDS011;24821;51.988;6.020;2022-08-19T10:18:35;24.25;;;22.30;;
39066;SDS011;24821;51.988;6.020;2022-08-19T10:21:06;24.85;;;22.67;;
39066;SDS011;24821;51.988;6.020;2022-08-19T10:23:35;25.05;;;22.85;;
39066;SDS011;24821;51.988;6.020;2022-08-19T10:26:03;23.67;;;21.65;;
39066;SDS011;24821;51.988;6.020;2022-08-19T10:28:30;25.70;;;23.75;;
39066;SDS011;24821;51.988;6.020;2022-08-19T10:30:57;25.77;;;23.52;;
39066;SDS011;24821;51.988;6.020;2022-08-19T10:33:24;27.20;;;25.00;;
39066;SDS011;24821;51.988;6.020;2022-08-19T10:35:58;23.23;;;21.25;;
39066;SDS011;24821;51.988;6.020;2022-08-19T10:38:24;22.33;;;20.42;;
39066;SDS011;24821;51.988;6.020;2022-08-19T10:40:50;23.67;;;21.67;;
39066;SDS011;24821;51.988;6.020;2022-08-19T10:43:15;25.98;;;23.85;;
39066;SDS011;24821;51.988;6.020;2022-08-19T10:45:42;26.27;;;23.98;;
39066;SDS011;24821;51.988;6.020;2022-08-19T10:48:07;25.42;;;23.45;;
39066;SDS011;24821;51.988;6.020;2022-08-19T10:50:33;23.52;;;21.70;;
39066;SDS011;24821;51.988;6.020;2022-08-19T10:55:44;24.35;;;22.35;;
39066;SDS011;24821;51.988;6.020;2022-08-19T10:58:28;22.45;;;20.73;;
39066;SDS011;24821;51.988;6.020;2022-08-19T11:00:54;19.95;;;18.42;;
39066;SDS011;24821;51.988;6.020;2022-08-19T11:03:21;19.88;;;18.38;;
39066;SDS011;24821;51.988;6.020;2022-08-19T11:05:57;19.73;;;18.02;;
39066;SDS011;24821;51.988;6.020;2022-08-19T11:08:24;19.00;;;17.55;;
39066;SDS011;24821;51.988;6.020;2022-08-19T11:10:52;18.17;;;16.40;;
39066;SDS011;24821;51.988;6.020;2022-08-19T11:13:25;19.65;;;17.85;;
39066;SDS011;24821;51.988;6.020;2022-08-19T11:16:03;19.25;;;17.63;;
39066;SDS011;24821;51.988;6.020;2022-08-19T11:18:31;17.65;;;16.05;;
39066;SDS011;24821;51.988;6.020;2022-08-19T11:21:19;18.88;;;17.10;;
39066;SDS011;24821;51.988;6.020;2022-08-19T11:23:45;19.85;;;18.08;;
39066;SDS011;24821;51.988;6.020;2022-08-19T11:26:14;23.00;;;21.05;;
39066;SDS011;24821;51.988;6.020;2022-08-19T11:28:40;19.77;;;18.10;;
39066;SDS011;24821;51.988;6.020;2022-08-19T11:31:17;22.33;;;20.25;;
39066;SDS011;24821;51.988;6.020;2022-08-19T11:33:44;20.27;;;18.63;;
39066;SDS011;24821;51.988;6.020;2022-08-19T11:36:11;18.92;;;17.23;;
39066;SDS011;24821;51.988;6.020;2022-08-19T11:38:37;19.50;;;17.77;;
39066;SDS011;24821;51.988;6.020;2022-08-19T11:41:04;19.33;;;17.77;;
39066;SDS011;24821;51.988;6.020;2022-08-19T11:43:32;18.35;;;16.80;;
39066;SDS011;24821;51.988;6.020;2022-08-19T11:45:58;17.40;;;15.80;;
39066;SDS011;24821;51.988;6.020;2022-08-19T11:48:25;18.45;;;16.92;;
39066;SDS011;24821;51.988;6.020;2022-08-19T11:50:51;18.58;;;17.05;;
39066;SDS011;24821;51.988;6.020;2022-08-19T11:53:20;18.45;;;16.85;;
39066;SDS011;24821;51.988;6.020;2022-08-19T11:55:46;17.83;;;15.98;;
39066;SDS011;24821;51.988;6.020;2022-08-19T11:58:12;16.95;;;15.45;;
39066;SDS011;24821;51.988;6.020;2022-08-19T12:00:39;18.00;;;16.33;;
39066;SDS011;24821;51.988;6.020;2022-08-19T12:03:06;17.98;;;16.38;;
39066;SDS011;24821;51.988;6.020;2022-08-19T12:05:32;15.80;;;14.43;;
39066;SDS011;24821;51.988;6.020;2022-08-19T12:07:58;16.48;;;15.07;;
39066;SDS011;24821;51.988;6.020;2022-08-19T12:10:24;16.88;;;15.38;;
39066;SDS011;24821;51.988;6.020;2022-08-19T12:12:49;14.50;;;13.32;;
39066;SDS011;24821;51.988;6.020;2022-08-19T12:15:15;16.08;;;14.52;;
39066;SDS011;24821;51.988;6.020;2022-08-19T12:17:41;15.70;;;14.38;;
39066;SDS011;24821;51.988;6.020;2022-08-19T12:20:08;13.35;;;12.05;;
39066;SDS011;24821;51.988;6.020;2022-08-19T12:22:38;13.93;;;12.88;;
39066;SDS011;24821;51.988;6.020;2022-08-19T12:25:06;16.38;;;15.07;;
39066;SDS011;24821;51.988;6.020;2022-08-19T12:27:33;15.10;;;13.90;;
39066;SDS011;24821;51.988;6.020;2022-08-19T12:30:00;15.35;;;14.05;;
39066;SDS011;24821;51.988;6.020;2022-08-19T12:32:27;17.55;;;16.05;;
39066;SDS011;24821;51.988;6.020;2022-08-19T12:34:53;16.10;;;14.77;;
39066;SDS011;24821;51.988;6.020;2022-08-19T12:37:19;15.15;;;13.95;;
39066;SDS011;24821;51.988;6.020;2022-08-19T12:39:45;13.73;;;12.70;;
39066;SDS011;24821;51.988;6.020;2022-08-19T12:42:11;13.57;;;12.52;;
39066;SDS011;24821;51.988;6.020;2022-08-19T12:44:39;12.48;;;11.48;;
39066;SDS011;24821;51.988;6.020;2022-08-19T12:47:06;11.52;;;10.57;;
39066;SDS011;24821;51.988;6.020;2022-08-19T12:49:33;11.85;;;10.95;;
39066;SDS011;24821;51.988;6.020;2022-08-19T12:52:01;12.30;;;11.38;;
39066;SDS011;24821;51.988;6.020;2022-08-19T12:54:28;14.90;;;13.68;;
39066;SDS011;24821;51.988;6.020;2022-08-19T12:56:55;14.00;;;12.85;;
39066;SDS011;24821;51.988;6.020;2022-08-19T12:59:24;17.55;;;15.82;;
39066;SDS011;24821;51.988;6.020;2022-08-19T13:01:50;15.75;;;14.35;;
39066;SDS011;24821;51.988;6.020;2022-08-19T13:04:16;15.00;;;13.70;;
39066;SDS011;24821;51.988;6.020;2022-08-19T13:06:41;15.13;;;13.95;;
39066;SDS011;24821;51.988;6.020;2022-08-19T13:09:07;12.98;;;11.88;;
39066;SDS011;24821;51.988;6.020;2022-08-19T13:11:33;15.73;;;14.30;;
39066;SDS011;24821;51.988;6.020;2022-08-19T13:14:00;14.23;;;13.23;;
39066;SDS011;24821;51.988;6.020;2022-08-19T13:16:27;15.07;;;13.93;;
39066;SDS011;24821;51.988;6.020;2022-08-19T13:18:53;15.27;;;13.98;;
39066;SDS011;24821;51.988;6.020;2022-08-19T13:21:21;15.52;;;14.32;;
39066;SDS011;24821;51.988;6.020;2022-08-19T13:23:49;15.50;;;14.30;;
39066;SDS011;24821;51.988;6.020;2022-08-19T13:26:16;13.55;;;12.38;;
39066;SDS011;24821;51.988;6.020;2022-08-19T13:28:43;16.23;;;14.55;;
39066;SDS011;24821;51.988;6.020;2022-08-19T13:31:28;17.63;;;16.20;;
39066;SDS011;24821;51.988;6.020;2022-08-19T13:34:15;14.82;;;13.65;;
39066;SDS011;24821;51.988;6.020;2022-08-19T13:36:42;13.55;;;12.50;;
39066;SDS011;24821;51.988;6.020;2022-08-19T13:39:08;14.13;;;13.07;;
39066;SDS011;24821;51.988;6.020;2022-08-19T13:41:35;13.60;;;12.50;;
39066;SDS011;24821;51.988;6.020;2022-08-19T13:44:01;13.80;;;12.70;;
39066;SDS011;24821;51.988;6.020;2022-08-19T13:46:28;16.15;;;14.93;;
39066;SDS011;24821;51.988;6.020;2022-08-19T13:48:54;13.77;;;12.77;;
39066;SDS011;24821;51.988;6.020;2022-08-19T13:51:21;15.07;;;13.85;;
39066;SDS011;24821;51.988;6.020;2022-08-19T13:53:47;15.60;;;14.40;;
39066;SDS011;24821;51.988;6.020;2022-08-19T13:56:14;14.75;;;13.65;;
39066;SDS011;24821;51.988;6.020;2022-08-19T13:58:44;14.60;;;13.40;;
39066;SDS011;24821;51.988;6.020;2022-08-19T14:01:10;11.35;;;10.55;;
39066;SDS011;24821;51.988;6.020;2022-08-19T14:03:35;14.07;;;12.98;;
39066;SDS011;24821;51.988;6.020;2022-08-19T14:06:01;12.10;;;11.18;;
39066;SDS011;24821;51.988;6.020;2022-08-19T14:08:27;23.20;;;21.30;;
39066;SDS011;24821;51.988;6.020;2022-08-19T14:10:54;13.63;;;12.55;;
39066;SDS011;24821;51.988;6.020;2022-08-19T14:13:21;35.42;;;32.53;;
39066;SDS011;24821;51.988;6.020;2022-08-19T14:15:49;14.77;;;13.65;;
39066;SDS011;24821;51.988;6.020;2022-08-19T14:18:16;14.15;;;12.93;;
39066;SDS011;24821;51.988;6.020;2022-08-19T14:20:42;12.90;;;11.80;;
39066;SDS011;24821;51.988;6.020;2022-08-19T14:23:09;13.82;;;12.68;;
39066;SDS011;24821;51.988;6.020;2022-08-19T14:25:35;12.40;;;11.40;;
39066;SDS011;24821;51.988;6.020;2022-08-19T14:28:01;13.50;;;12.43;;
39066;SDS011;24821;51.988;6.020;2022-08-19T14:30:28;15.63;;;14.43;;
39066;SDS011;24821;51.988;6.020;2022-08-19T14:32:57;14.35;;;12.75;;
39066;SDS011;24821;51.988;6.020;2022-08-19T14:35:24;17.13;;;15.73;;
39066;SDS011;24821;51.988;6.020;2022-08-19T14:37:51;16.35;;;15.02;;
39066;SDS011;24821;51.988;6.020;2022-08-19T14:40:21;19.50;;;17.92;;
39066;SDS011;24821;51.988;6.020;2022-08-19T14:42:51;20.98;;;19.35;;